Time;durP1;ratioP1;P1;durP2;ratioP2;P2;SDS_P1;SDS_P2;PMS_P1;PMS_P2;Temp;Humidity;BMP_temperature;BMP_pressure;BME280_temperature;BME280_humidity;BME280_pressure;Samples;Min_cycle;Max_cycle;Signal;HPM_P1;HPM_P2
2023/05/04 00:01:10;;;;;;;5.15;3.20;;;14.00;93.00;;;;;;5031889;28;20085;-67
2023/05/04 00:03:36;;;;;;;7.80;3.50;;;14.00;93.20;;;;;;5032187;28;20072;-66
2023/05/04 00:06:02;;;;;;;5.30;3.00;;;14.00;93.00;;;;;;5032320;28;20549;-67
2023/05/04 00:08:28;;;;;;;4.53;3.58;;;14.00;92.80;;;;;;5032105;28;20038;-67
2023/05/04 00:10:54;;;;;;;7.35;3.30;;;14.00;93.10;;;;;;5035407;28;20021;-68
2023/05/04 00:13:21;;;;;;;5.45;2.70;;;14.00;92.80;;;;;;5035293;28;20024;-67
2023/05/04 00:15:46;;;;;;;6.38;3.40;;;13.90;92.80;;;;;;5035320;28;20026;-67
2023/05/04 00:18:12;;;;;;;5.80;3.33;;;14.00;92.80;;;;;;5035535;28;20022;-67
2023/05/04 00:20:38;;;;;;;7.50;3.50;;;13.90;92.70;;;;;;5035301;28;20033;-67
2023/05/04 00:23:03;;;;;;;5.05;3.00;;;13.90;92.60;;;;;;5035503;28;20037;-67
2023/05/04 00:25:29;;;;;;;5.05;3.20;;;13.90;92.60;;;;;;5036164;28;20529;-67
2023/05/04 00:27:55;;;;;;;5.00;2.95;;;13.90;92.80;;;;;;5036212;28;20034;-68
2023/05/04 00:30:22;;;;;;;2.97;2.50;;;13.90;92.80;;;;;;5036065;28;20022;-66
2023/05/04 00:32:47;;;;;;;3.85;3.05;;;13.80;92.60;;;;;;5035672;28;20040;-66
2023/05/04 00:35:30;;;;;;;3.70;2.88;;;13.90;92.80;;;;;;5035797;28;20029;-67
2023/05/04 00:38:35;;;;;;;8.63;3.70;;;13.80;92.40;;;;;;5035388;28;20064;-69
2023/05/04 00:41:13;;;;;;;5.25;3.45;;;13.80;92.40;;;;;;5029378;28;20080;-67
2023/05/04 00:44:23;;;;;;;3.95;3.55;;;13.80;92.50;;;;;;5035177;28;20090;-67
2023/05/04 00:47:10;;;;;;;5.22;3.55;;;13.80;92.40;;;;;;4977518;28;20114;-69
2023/05/04 00:49:45;;;;;;;6.97;3.60;;;13.70;92.70;;;;;;4993816;28;20030;-67
2023/05/04 00:52:53;;;;;;;8.77;4.18;;;13.60;92.80;;;;;;5000215;28;20062;-66
2023/05/04 00:55:31;;;;;;;4.10;3.70;;;13.60;92.90;;;;;;4995298;28;20034;-67
2023/05/04 01:01:07;;;;;;;5.40;3.90;;;13.50;93.00;;;;;;4972570;28;20066;-69
2023/05/04 01:03:36;;;;;;;9.23;4.03;;;13.40;93.10;;;;;;4992580;28;20097;-68
2023/05/04 01:06:15;;;;;;;7.60;4.30;;;13.40;93.50;;;;;;4995056;28;20026;-67
2023/05/04 01:08:54;;;;;;;5.85;4.53;;;13.40;93.50;;;;;;4995307;28;20101;-69
2023/05/04 01:11:34;;;;;;;6.20;4.47;;;13.40;93.70;;;;;;4995256;28;20416;-67
2023/05/04 01:14:01;;;;;;;5.97;4.50;;;13.30;93.60;;;;;;4994761;28;20038;-69
2023/05/04 01:16:27;;;;;;;9.70;4.80;;;13.30;93.50;;;;;;4995091;28;20038;-67
2023/05/04 01:18:53;;;;;;;6.55;3.92;;;13.30;93.60;;;;;;4995287;28;20030;-67
2023/05/04 01:21:19;;;;;;;5.13;4.43;;;13.30;93.70;;;;;;4994696;28;20076;-67
2023/05/04 01:23:45;;;;;;;10.35;4.63;;;13.30;93.70;;;;;;4995083;28;20046;-69
2023/05/04 01:26:23;;;;;;;6.55;5.25;;;13.30;93.80;;;;;;4994771;28;20094;-67
2023/05/04 01:29:15;;;;;;;7.55;4.38;;;13.20;93.60;;;;;;4993179;28;20026;-66
2023/05/04 01:31:42;;;;;;;9.18;5.05;;;13.20;93.80;;;;;;4994587;28;20560;-67
2023/05/04 01:34:09;;;;;;;5.80;4.68;;;13.20;94.00;;;;;;4994742;28;20059;-67
2023/05/04 01:36:35;;;;;;;5.40;4.35;;;13.10;94.00;;;;;;4994424;28;20547;-67
2023/05/04 01:39:02;;;;;;;6.50;4.70;;;13.10;94.00;;;;;;4994633;28;20515;-67
2023/05/04 01:41:29;;;;;;;7.97;5.15;;;13.00;94.00;;;;;;4994207;28;20723;-67
2023/05/04 01:43:55;;;;;;;8.55;4.32;;;13.10;94.30;;;;;;4994108;28;20488;-70
2023/05/04 01:46:21;;;;;;;5.68;4.47;;;13.00;94.20;;;;;;4994270;28;20099;-67
2023/05/04 01:48:47;;;;;;;8.45;4.30;;;13.00;94.10;;;;;;4994509;28;20027;-67
2023/05/04 01:51:12;;;;;;;13.95;4.50;;;13.00;94.10;;;;;;5005134;28;20117;-66
2023/05/04 01:53:38;;;;;;;5.70;4.28;;;12.90;94.40;;;;;;5033661;28;20030;-66
2023/05/04 01:56:05;;;;;;;5.70;4.25;;;12.90;94.50;;;;;;5033432;28;20036;-67
2023/05/04 01:58:31;;;;;;;6.43;4.53;;;12.90;94.80;;;;;;5033282;28;20034;-67
2023/05/04 02:00:58;;;;;;;6.85;4.32;;;12.90;94.40;;;;;;5033646;28;20029;-67
2023/05/04 02:03:24;;;;;;;9.32;4.30;;;12.90;94.30;;;;;;5033367;28;20423;-69
2023/05/04 02:05:51;;;;;;;6.55;4.70;;;12.80;94.30;;;;;;5033581;28;20100;-66
2023/05/04 02:08:17;;;;;;;5.72;4.60;;;12.80;94.30;;;;;;5034003;28;20025;-67
2023/05/04 02:10:43;;;;;;;8.70;4.00;;;12.80;94.30;;;;;;5034121;28;20545;-67
2023/05/04 02:13:09;;;;;;;8.23;4.32;;;12.70;94.40;;;;;;5033956;28;20101;-66
2023/05/04 02:15:35;;;;;;;6.18;4.35;;;12.80;94.30;;;;;;5033675;28;20547;-69
2023/05/04 02:18:01;;;;;;;5.38;4.40;;;12.70;94.40;;;;;;5033597;28;20064;-68
2023/05/04 02:20:42;;;;;;;9.68;4.10;;;12.70;94.60;;;;;;5033336;28;20033;-67
2023/05/04 02:23:08;;;;;;;6.78;4.60;;;12.70;94.50;;;;;;5029326;28;20426;-67
2023/05/04 02:25:37;;;;;;;8.20;4.50;;;12.70;94.50;;;;;;5033483;28;20025;-67
2023/05/04 02:28:39;;;;;;;7.03;4.60;;;12.70;94.40;;;;;;5033313;28;20030;-66
2023/05/04 02:31:56;;;;;;;5.43;4.35;;;12.70;94.50;;;;;;5033244;28;20079;-69
2023/05/04 02:35:02;;;;;;;7.00;4.95;;;12.70;94.80;;;;;;4933941;29;20036;-66
2023/05/04 02:37:51;;;;;;;4.65;4.00;;;12.60;95.00;;;;;;4933277;29;20130;-67
2023/05/04 02:40:20;;;;;;;8.38;4.38;;;12.60;94.90;;;;;;4916492;29;20044;-67
2023/05/04 02:42:51;;;;;;;5.47;4.10;;;12.60;94.80;;;;;;4933875;29;20414;-67
2023/05/04 02:45:26;;;;;;;4.67;4.20;;;12.50;94.60;;;;;;4933937;29;20390;-67
2023/05/04 02:47:52;;;;;;;4.53;3.95;;;12.50;94.60;;;;;;4933720;29;20052;-68
2023/05/04 02:50:18;;;;;;;7.25;4.40;;;12.50;94.70;;;;;;4933378;29;20127;-67
2023/05/04 02:52:44;;;;;;;5.97;4.05;;;12.50;94.70;;;;;;5004169;28;20117;-67
2023/05/04 02:55:10;;;;;;;7.28;5.32;;;12.50;94.70;;;;;;5012760;28;20014;-67
2023/05/04 02:57:35;;;;;;;5.57;4.53;;;12.50;94.80;;;;;;5012743;28;20037;-67
2023/05/04 03:00:03;;;;;;;4.80;4.30;;;12.40;94.90;;;;;;5012838;28;20116;-68
2023/05/04 03:02:29;;;;;;;9.60;4.75;;;12.50;94.70;;;;;;5012631;28;20391;-67
2023/05/04 03:04:55;;;;;;;7.30;4.65;;;12.40;95.00;;;;;;5012744;28;20022;-67
2023/05/04 03:07:21;;;;;;;5.45;4.30;;;12.40;94.90;;;;;;5012553;28;20026;-67
2023/05/04 03:09:46;;;;;;;6.18;4.38;;;12.40;94.90;;;;;;5011474;28;20033;-67
2023/05/04 03:12:12;;;;;;;7.32;4.70;;;12.30;95.00;;;;;;5011658;28;20025;-67
2023/05/04 03:14:38;;;;;;;7.85;4.60;;;12.30;94.80;;;;;;5012893;28;20030;-67
2023/05/04 03:17:04;;;;;;;6.80;4.70;;;12.30;94.80;;;;;;5012887;28;20022;-67
2023/05/04 03:19:29;;;;;;;6.00;4.40;;;12.30;94.80;;;;;;5013058;28;20034;-67
2023/05/04 03:21:55;;;;;;;4.80;4.30;;;12.30;94.90;;;;;;5012547;28;20038;-70
2023/05/04 03:24:21;;;;;;;4.93;4.07;;;12.20;94.90;;;;;;5012781;28;20067;-68
2023/05/04 03:26:47;;;;;;;6.43;4.75;;;12.20;94.90;;;;;;5012697;28;20080;-68
2023/05/04 03:29:13;;;;;;;5.25;4.45;;;12.20;95.00;;;;;;5012531;28;20153;-68
2023/05/04 03:31:38;;;;;;;6.10;5.07;;;12.10;95.00;;;;;;5012197;28;20083;-67
2023/05/04 03:34:04;;;;;;;7.10;4.88;;;12.10;95.10;;;;;;5012062;28;20026;-67
2023/05/04 03:36:30;;;;;;;5.88;4.03;;;12.10;95.20;;;;;;5012272;28;20029;-67
2023/05/04 03:38:56;;;;;;;5.45;4.55;;;12.20;95.30;;;;;;5012306;28;20037;-67
2023/05/04 03:41:21;;;;;;;11.00;4.32;;;12.20;95.20;;;;;;5012449;28;20383;-67
2023/05/04 03:43:47;;;;;;;8.35;4.47;;;12.20;95.00;;;;;;5012947;28;20034;-67
2023/05/04 03:46:13;;;;;;;8.70;4.38;;;12.10;95.00;;;;;;5016322;28;20040;-67
2023/05/04 03:48:39;;;;;;;9.13;4.47;;;12.10;95.10;;;;;;5016461;28;20131;-67
2023/05/04 03:51:05;;;;;;;5.65;4.75;;;12.10;95.10;;;;;;5020435;28;20057;-67
2023/05/04 03:53:34;;;;;;;5.63;4.28;;;12.00;95.10;;;;;;5035758;28;20041;-67
2023/05/04 03:56:01;;;;;;;6.32;4.03;;;12.00;95.10;;;;;;5036194;28;20024;-67
2023/05/04 03:58:27;;;;;;;9.77;4.53;;;12.00;95.10;;;;;;5018897;28;20111;-67
2023/05/04 04:00:53;;;;;;;6.80;4.57;;;11.90;95.10;;;;;;5036579;28;20479;-67
2023/05/04 04:03:19;;;;;;;6.65;4.07;;;11.90;95.20;;;;;;5036415;28;20039;-68
2023/05/04 04:05:45;;;;;;;7.05;4.00;;;12.00;95.20;;;;;;5036293;28;20494;-67
2023/05/04 04:08:14;;;;;;;5.10;4.43;;;11.90;95.00;;;;;;5035967;28;20025;-67
2023/05/04 04:11:02;;;;;;;8.93;4.32;;;11.90;94.80;;;;;;5036052;28;20052;-68
2023/05/04 04:13:31;;;;;;;9.52;4.57;;;11.90;94.90;;;;;;5035524;28;20029;-67
2023/05/04 04:19:01;;;;;;;5.80;4.22;;;11.80;95.20;;;;;;5035878;28;20060;-67
2023/05/04 04:21:38;;;;;;;9.98;4.70;;;11.80;95.10;;;;;;5035583;28;20036;-67
2023/05/04 04:26:54;;;;;;;6.00;4.70;;;11.80;95.20;;;;;;5024834;28;20083;-67
2023/05/04 04:29:52;;;;;;;9.98;5.18;;;11.80;95.40;;;;;;5034969;28;20040;-68
2023/05/04 04:32:44;;;;;;;10.18;5.03;;;11.80;95.40;;;;;;5035477;28;20358;-67
2023/05/04 04:35:10;;;;;;;9.98;5.30;;;11.80;95.40;;;;;;4975084;28;20045;-68
2023/05/04 04:37:36;;;;;;;5.82;4.78;;;11.80;95.50;;;;;;5035552;28;20017;-67
2023/05/04 04:40:02;;;;;;;5.95;4.68;;;11.80;95.60;;;;;;5035044;28;20371;-68
2023/05/04 04:42:28;;;;;;;11.10;5.53;;;11.80;95.60;;;;;;5035016;28;20107;-67
2023/05/04 04:44:54;;;;;;;8.60;7.10;;;11.80;96.00;;;;;;5017459;28;20030;-67
2023/05/04 04:47:20;;;;;;;8.93;5.32;;;11.90;96.00;;;;;;5017535;28;20437;-70
2023/05/04 04:49:46;;;;;;;9.23;4.88;;;11.90;96.00;;;;;;5034964;28;20029;-68
2023/05/04 04:52:12;;;;;;;6.40;4.80;;;11.90;95.90;;;;;;5034440;28;20041;-68
2023/05/04 04:54:38;;;;;;;7.68;5.13;;;12.00;96.10;;;;;;5034319;28;20022;-68
2023/05/04 04:57:04;;;;;;;9.45;4.53;;;12.00;96.20;;;;;;5034760;28;20083;-68
2023/05/04 04:59:30;;;;;;;9.07;4.78;;;12.00;95.90;;;;;;5034717;28;20349;-68
2023/05/04 05:01:56;;;;;;;5.95;4.82;;;12.00;96.10;;;;;;5034873;28;20046;-68
2023/05/04 05:04:22;;;;;;;10.65;4.90;;;12.10;96.20;;;;;;5034820;28;20142;-67
2023/05/04 05:06:48;;;;;;;7.28;4.85;;;12.10;96.10;;;;;;5034858;28;20033;-67
2023/05/04 05:09:14;;;;;;;5.40;4.90;;;12.10;95.90;;;;;;5034424;28;20065;-67
2023/05/04 05:11:40;;;;;;;5.53;4.90;;;12.20;95.90;;;;;;5034364;28;20025;-68
2023/05/04 05:14:05;;;;;;;9.65;5.88;;;12.20;95.80;;;;;;5034490;28;20040;-67
2023/05/04 05:16:31;;;;;;;8.40;5.45;;;12.30;95.90;;;;;;5034084;28;20087;-68
2023/05/04 05:18:57;;;;;;;11.93;5.68;;;12.30;96.00;;;;;;5034238;28;20034;-67
2023/05/04 05:21:23;;;;;;;29.48;8.90;;;12.40;95.90;;;;;;5034095;28;20036;-67
2023/05/04 05:23:48;;;;;;;41.45;8.80;;;12.40;95.90;;;;;;5034145;28;20033;-68
2023/05/04 05:26:15;;;;;;;23.60;7.22;;;12.50;95.90;;;;;;5034254;28;20390;-71
2023/05/04 05:28:40;;;;;;;36.20;8.07;;;12.50;95.80;;;;;;5034689;28;20041;-68
2023/05/04 05:31:06;;;;;;;28.02;7.75;;;12.60;96.00;;;;;;5033970;28;20090;-67
2023/05/04 05:33:32;;;;;;;37.63;7.70;;;12.60;96.00;;;;;;5033619;28;20038;-68
2023/05/04 05:35:58;;;;;;;39.08;7.50;;;12.60;96.00;;;;;;5034004;28;20021;-68
2023/05/04 05:38:25;;;;;;;43.10;8.20;;;12.70;96.00;;;;;;5034080;28;20379;-67
2023/05/04 05:40:51;;;;;;;34.05;6.93;;;12.70;95.80;;;;;;5034389;28;20349;-68
2023/05/04 05:43:17;;;;;;;53.90;9.20;;;12.70;95.70;;;;;;5033587;28;20045;-68
2023/05/04 05:45:42;;;;;;;56.10;9.30;;;12.80;95.80;;;;;;5033341;28;20080;-68
2023/05/04 05:48:09;;;;;;;58.08;8.73;;;12.80;95.70;;;;;;5034244;28;20041;-68
2023/05/04 05:50:35;;;;;;;33.72;7.32;;;12.90;95.60;;;;;;5033926;28;20061;-69
2023/05/04 05:53:47;;;;;;;48.40;8.13;;;12.90;95.50;;;;;;5033955;28;20068;-68
2023/05/04 05:56:57;;;;;;;46.47;9.18;;;13.00;95.40;;;;;;5025737;28;20037;-67
2023/05/04 05:59:26;;;;;;;30.88;7.70;;;13.10;95.30;;;;;;5023606;28;20491;-68
2023/05/04 06:06:32;;;;;;;25.60;6.72;;;13.20;95.20;;;;;;4914432;29;20036;-68
2023/05/04 06:09:04;;;;;;;16.67;6.38;;;13.30;95.30;;;;;;4914825;29;20494;-68
2023/05/04 06:11:30;;;;;;;11.43;5.88;;;13.30;95.30;;;;;;4915072;29;20035;-68
2023/05/04 06:13:56;;;;;;;8.88;5.13;;;13.40;95.40;;;;;;4915270;29;20084;-68
2023/05/04 06:16:54;;;;;;;8.80;4.57;;;13.40;95.30;;;;;;4967339;28;20038;-68
2023/05/04 06:19:20;;;;;;;9.90;4.70;;;13.50;95.40;;;;;;4981506;28;20050;-69
2023/05/04 06:21:48;;;;;;;7.72;4.80;;;13.60;95.40;;;;;;4991415;28;20057;-68
2023/05/04 06:24:14;;;;;;;8.13;5.20;;;13.70;95.20;;;;;;5030531;28;20380;-68
2023/05/04 06:26:41;;;;;;;6.35;4.68;;;13.80;95.10;;;;;;5033136;28;20477;-69
2023/05/04 06:29:07;;;;;;;6.82;4.63;;;13.90;94.90;;;;;;5033011;28;20352;-68
2023/05/04 06:31:32;;;;;;;6.43;4.47;;;14.00;94.60;;;;;;5032839;28;20029;-68
2023/05/04 06:33:58;;;;;;;7.32;4.57;;;14.10;94.30;;;;;;5033075;28;20129;-68
2023/05/04 06:36:27;;;;;;;6.75;4.78;;;14.20;93.80;;;;;;5032838;28;20026;-68
2023/05/04 06:38:54;;;;;;;8.27;4.60;;;14.30;93.60;;;;;;5032899;28;20081;-69
2023/05/04 06:41:20;;;;;;;9.98;4.97;;;14.40;93.50;;;;;;5031582;28;20132;-67
2023/05/04 06:43:46;;;;;;;10.35;4.90;;;14.50;93.00;;;;;;5032014;28;20039;-68
2023/05/04 06:46:11;;;;;;;7.68;4.82;;;14.60;92.90;;;;;;5028635;28;20160;-69
2023/05/04 06:48:37;;;;;;;7.00;4.32;;;14.70;92.40;;;;;;5030091;28;20017;-68
2023/05/04 06:51:03;;;;;;;12.02;4.90;;;14.80;92.20;;;;;;5028607;28;20042;-68
2023/05/04 06:53:29;;;;;;;6.57;4.70;;;14.80;92.20;;;;;;5031199;28;20156;-68
2023/05/04 06:55:55;;;;;;;8.70;4.10;;;15.00;91.70;;;;;;5013969;28;20108;-68
2023/05/04 06:58:20;;;;;;;8.10;4.68;;;15.00;91.20;;;;;;5031442;28;20025;-68
2023/05/04 07:00:46;;;;;;;10.48;4.55;;;15.10;91.40;;;;;;5031798;28;20091;-67
2023/05/04 07:03:12;;;;;;;9.07;4.30;;;15.20;91.10;;;;;;5031344;28;20044;-68
2023/05/04 07:05:38;;;;;;;12.65;4.32;;;15.30;91.10;;;;;;5032433;28;20037;-68
2023/05/04 07:08:04;;;;;;;7.90;3.70;;;15.40;91.00;;;;;;5031610;28;20029;-68
2023/05/04 07:10:30;;;;;;;11.30;4.05;;;15.40;91.10;;;;;;5029992;28;20107;-67
2023/05/04 07:12:56;;;;;;;5.07;3.80;;;15.50;90.00;;;;;;5029339;28;20068;-67
2023/05/04 07:15:21;;;;;;;7.07;3.60;;;15.60;90.20;;;;;;5031369;28;20029;-68
2023/05/04 07:17:47;;;;;;;7.60;3.60;;;15.70;89.60;;;;;;5032655;28;20025;-67
2023/05/04 07:20:16;;;;;;;11.45;3.55;;;15.80;88.40;;;;;;5034366;28;20013;-69
2023/05/04 07:22:41;;;;;;;7.05;3.50;;;15.90;88.60;;;;;;5033705;28;20037;-69
2023/05/04 07:25:08;;;;;;;4.97;3.25;;;16.00;88.20;;;;;;5017222;28;20395;-68
2023/05/04 07:27:36;;;;;;;9.25;3.40;;;16.00;86.30;;;;;;5036998;28;20018;-68
2023/05/04 07:30:05;;;;;;;5.88;3.90;;;16.10;87.40;;;;;;5036028;28;20037;-68
2023/05/04 07:32:31;;;;;;;7.00;3.20;;;16.20;87.20;;;;;;5036467;28;20089;-68
2023/05/04 07:34:57;;;;;;;5.70;3.58;;;16.20;86.70;;;;;;5036611;28;20025;-68
2023/05/04 07:37:43;;;;;;;3.95;2.97;;;16.30;84.30;;;;;;5036768;28;20018;-68
2023/05/04 07:43:52;;;;;;;4.30;2.97;;;16.50;84.20;;;;;;5015310;28;20045;-68
2023/05/04 08:03:54;;;;;;;4.13;2.88;;;17.10;78.10;;;;;;4879033;29;20196;-68
2023/05/04 08:06:20;;;;;;;6.50;2.67;;;17.10;75.30;;;;;;4879558;29;20415;-68
2023/05/04 08:08:48;;;;;;;7.78;2.97;;;17.20;76.20;;;;;;4956337;28;20034;-68
2023/05/04 08:11:15;;;;;;;2.97;2.60;;;17.30;77.90;;;;;;5021323;28;20140;-68
2023/05/04 08:13:41;;;;;;;6.90;3.00;;;17.40;76.30;;;;;;5035868;28;20065;-68
2023/05/04 08:16:10;;;;;;;8.85;2.92;;;17.50;76.20;;;;;;5035733;28;20033;-68
2023/05/04 08:18:36;;;;;;;5.63;2.63;;;17.60;75.90;;;;;;5035391;28;20021;-68
2023/05/04 08:21:02;;;;;;;7.10;2.83;;;17.60;76.20;;;;;;5035341;28;20018;-68
2023/05/04 08:23:27;;;;;;;7.43;2.65;;;17.70;76.00;;;;;;5035400;28;20121;-69
2023/05/04 08:25:53;;;;;;;7.38;3.20;;;17.80;76.50;;;;;;5035267;28;20025;-68
2023/05/04 08:28:19;;;;;;;5.32;3.35;;;17.90;76.60;;;;;;5035058;28;20059;-68
2023/05/04 08:30:44;;;;;;;5.38;2.75;;;18.10;76.80;;;;;;5034581;28;20025;-68
2023/05/04 08:33:10;;;;;;;7.13;2.95;;;18.20;76.30;;;;;;5035128;28;20022;-69
2023/05/04 08:35:36;;;;;;;4.45;2.85;;;18.30;75.20;;;;;;5035560;28;20057;-69
2023/05/04 08:38:03;;;;;;;3.67;2.35;;;18.40;75.00;;;;;;5035283;28;20037;-69
2023/05/04 08:40:29;;;;;;;5.68;2.40;;;18.50;73.70;;;;;;5035221;28;20498;-68
2023/05/04 08:42:55;;;;;;;3.30;2.40;;;18.50;73.20;;;;;;5034760;28;20065;-68
2023/05/04 08:45:21;;;;;;;4.45;2.50;;;18.60;72.90;;;;;;5034957;28;20487;-69
2023/05/04 08:47:47;;;;;;;5.78;2.83;;;18.70;71.20;;;;;;5035236;28;20034;-68
2023/05/04 08:50:13;;;;;;;6.80;2.42;;;18.70;69.70;;;;;;5034866;28;20093;-68
2023/05/04 08:52:45;;;;;;;6.00;2.58;;;18.80;68.90;;;;;;5034794;28;20046;-68
2023/05/04 08:55:11;;;;;;;4.95;2.45;;;18.90;68.90;;;;;;5034757;28;20025;-68
2023/05/04 08:57:40;;;;;;;4.38;2.40;;;18.90;67.60;;;;;;5035040;28;20033;-68
2023/05/04 09:00:07;;;;;;;4.20;1.95;;;19.00;67.00;;;;;;5034840;28;20067;-68
2023/05/04 09:02:35;;;;;;;4.00;2.42;;;19.10;67.10;;;;;;5034816;28;20036;-70
2023/05/04 09:05:01;;;;;;;8.13;2.65;;;19.20;69.10;;;;;;5017142;28;20033;-68
2023/05/04 09:07:27;;;;;;;5.78;2.67;;;19.30;68.90;;;;;;5034656;28;20056;-68
2023/05/04 09:09:55;;;;;;;3.25;2.25;;;19.40;68.10;;;;;;5035281;28;20068;-71
2023/05/04 09:12:21;;;;;;;5.45;2.50;;;19.50;67.00;;;;;;5035229;28;20114;-70
2023/05/04 09:14:47;;;;;;;5.47;2.20;;;19.70;66.30;;;;;;5035276;28;20483;-71
2023/05/04 09:17:16;;;;;;;5.05;2.50;;;19.80;65.70;;;;;;5017124;28;20092;-71
2023/05/04 09:19:43;;;;;;;5.78;2.30;;;19.90;65.40;;;;;;5035130;28;20056;-71
2023/05/04 09:22:21;;;;;;;3.60;2.40;;;20.00;65.40;;;;;;5034797;28;20033;-72
2023/05/04 09:25:13;;;;;;;2.78;2.05;;;20.10;62.30;;;;;;5017014;28;20032;-70
2023/05/04 09:28:11;;;;;;;4.25;2.38;;;20.10;62.60;;;;;;5030660;28;20458;-71
2023/05/04 09:31:18;;;;;;;3.03;2.10;;;20.10;63.70;;;;;;5027836;28;20037;-70
2023/05/04 09:37:12;;;;;;;7.78;2.13;;;20.40;61.20;;;;;;4934607;29;20035;-69
2023/05/04 09:40:42;;;;;;;7.22;2.30;;;20.40;60.10;;;;;;4950759;29;20039;-68
2023/05/04 09:43:17;;;;;;;5.13;2.10;;;20.50;59.20;;;;;;4912141;29;20065;-69
2023/05/04 09:46:19;;;;;;;10.55;2.47;;;20.60;58.10;;;;;;4897035;29;20072;-69
2023/05/04 09:49:08;;;;;;;3.72;1.85;;;20.60;58.20;;;;;;4915275;29;20103;-68
2023/05/04 09:51:35;;;;;;;12.65;1.92;;;20.60;56.20;;;;;;4919265;29;20114;-70
2023/05/04 09:54:02;;;;;;;4.63;1.90;;;20.60;54.30;;;;;;5003742;28;20047;-68
2023/05/04 09:56:44;;;;;;;3.67;1.70;;;20.60;54.90;;;;;;5013605;28;20371;-68
2023/05/04 09:59:11;;;;;;;2.40;1.80;;;20.70;55.40;;;;;;5033608;28;20029;-68
2023/05/04 10:01:37;;;;;;;4.78;1.88;;;20.70;55.20;;;;;;5016015;28;20328;-68
2023/05/04 10:04:03;;;;;;;4.85;2.10;;;20.80;54.50;;;;;;5033636;28;20026;-69
2023/05/04 10:06:29;;;;;;;4.60;1.92;;;20.90;52.60;;;;;;5033664;28;20071;-69
2023/05/04 10:08:57;;;;;;;7.78;2.60;;;21.00;52.30;;;;;;5033699;28;20021;-69
2023/05/04 10:11:24;;;;;;;6.72;2.58;;;21.00;53.40;;;;;;5015540;28;20392;-68
2023/05/04 10:13:53;;;;;;;2.63;1.80;;;21.10;54.30;;;;;;5033597;28;20464;-69
2023/05/04 10:16:39;;;;;;;3.05;1.75;;;21.30;56.10;;;;;;5033525;28;20053;-69
2023/05/04 10:19:30;;;;;;;5.28;1.92;;;21.40;53.00;;;;;;5033487;28;20464;-68
2023/05/04 10:22:02;;;;;;;3.95;1.73;;;21.50;52.20;;;;;;5033322;28;20113;-68
2023/05/04 10:24:43;;;;;;;2.88;2.05;;;21.50;51.40;;;;;;5033317;28;20025;-68
2023/05/04 10:27:32;;;;;;;5.25;2.08;;;21.50;51.30;;;;;;5015434;28;20064;-67
2023/05/04 10:30:00;;;;;;;4.28;1.85;;;21.50;53.30;;;;;;5033031;28;20503;-69
2023/05/04 10:32:27;;;;;;;7.53;2.15;;;21.60;52.80;;;;;;5032796;28;20459;-70
2023/05/04 10:35:04;;;;;;;4.60;1.98;;;21.70;50.90;;;;;;5032829;28;20464;-67
2023/05/04 10:37:30;;;;;;;2.35;1.55;;;21.80;53.60;;;;;;5033240;28;20032;-69
2023/05/04 10:39:57;;;;;;;6.72;1.92;;;21.90;50.00;;;;;;5032822;28;20106;-68
2023/05/04 10:42:22;;;;;;;5.63;2.10;;;21.90;52.40;;;;;;5033223;28;20033;-69
2023/05/04 10:44:55;;;;;;;4.68;2.00;;;22.00;52.80;;;;;;5032978;28;20168;-69
2023/05/04 10:47:34;;;;;;;2.88;1.60;;;22.10;52.10;;;;;;5032969;28;20022;-69
2023/05/04 10:50:09;;;;;;;3.88;2.22;;;22.30;51.70;;;;;;5032941;28;20029;-69
2023/05/04 10:52:45;;;;;;;9.77;2.30;;;22.30;51.40;;;;;;5032312;28;20442;-69
2023/05/04 10:55:12;;;;;;;6.28;2.05;;;22.40;48.90;;;;;;5032651;28;20029;-69
2023/05/04 10:57:50;;;;;;;3.60;2.13;;;22.50;48.10;;;;;;5033185;28;20087;-70
2023/05/04 11:00:17;;;;;;;5.10;1.80;;;22.50;50.00;;;;;;5033406;28;20014;-68
2023/05/04 11:02:46;;;;;;;7.80;1.85;;;22.60;50.70;;;;;;5031720;28;20053;-69
2023/05/04 11:05:17;;;;;;;5.63;1.80;;;22.70;49.00;;;;;;5030429;28;20028;-69
2023/05/04 11:12:28;;;;;;;4.50;1.67;;;22.80;50.60;;;;;;5033072;28;20501;-69
2023/05/04 11:15:52;;;;;;;3.35;1.83;;;22.90;49.10;;;;;;4914445;29;20032;-68
2023/05/04 11:22:18;;;;;;;3.67;1.90;;;23.00;49.60;;;;;;4911154;29;20051;-69
2023/05/04 11:24:56;;;;;;;;;;;23.10;47.40;;;;;;4914163;29;20040;-70
2023/05/04 11:28:26;;;;;;;3.30;1.70;;;23.20;48.20;;;;;;4914409;29;20326;-68
2023/05/04 11:31:07;;;;;;;2.28;1.50;;;23.30;47.50;;;;;;4898936;28;20032;-68
2023/05/04 11:33:34;;;;;;;4.68;1.85;;;23.30;47.40;;;;;;4971239;28;20110;-71
2023/05/04 11:36:00;;;;;;;3.85;1.60;;;23.40;47.80;;;;;;5006096;28;20030;-71
2023/05/04 11:38:26;;;;;;;2.88;1.70;;;23.50;47.80;;;;;;5014286;28;20442;-72
2023/05/04 11:40:52;;;;;;;3.90;1.70;;;23.70;47.80;;;;;;5032409;28;20037;-70
2023/05/04 11:43:18;;;;;;;4.35;1.77;;;23.80;46.10;;;;;;5014162;28;20038;-69
2023/05/04 11:45:47;;;;;;;3.28;2.00;;;23.80;46.70;;;;;;5031997;28;20395;-70
2023/05/04 11:48:13;;;;;;;9.63;1.80;;;23.90;47.10;;;;;;5032073;28;20025;-69
2023/05/04 11:50:40;;;;;;;5.45;1.50;;;24.00;46.90;;;;;;5031470;28;20365;-71
2023/05/04 11:53:10;;;;;;;4.50;2.00;;;24.10;46.60;;;;;;5032264;28;20037;-70
2023/05/04 11:55:36;;;;;;;1.92;1.52;;;24.20;44.70;;;;;;5031712;28;20087;-70
2023/05/04 11:58:03;;;;;;;2.00;1.50;;;24.20;46.70;;;;;;5013957;28;20053;-69
2023/05/04 12:00:41;;;;;;;4.82;1.55;;;24.30;47.00;;;;;;5031512;28;20084;-73
2023/05/04 12:03:22;;;;;;;5.47;1.40;;;24.40;45.90;;;;;;5030504;28;20037;-69
2023/05/04 12:05:51;;;;;;;3.30;1.50;;;24.50;45.50;;;;;;5034116;28;20502;-70
2023/05/04 12:08:29;;;;;;;3.05;1.70;;;24.50;44.40;;;;;;5035083;28;20064;-69
2023/05/04 12:11:24;;;;;;;5.78;2.00;;;24.50;45.00;;;;;;5035288;28;20061;-70
2023/05/04 12:14:08;;;;;;;3.08;1.88;;;24.50;46.60;;;;;;5033664;28;20039;-69
2023/05/04 12:16:35;;;;;;;3.45;1.90;;;24.50;45.30;;;;;;5032862;28;20319;-69
2023/05/04 12:19:04;;;;;;;5.25;2.13;;;24.60;45.60;;;;;;5033203;28;20026;-68
2023/05/04 12:21:31;;;;;;;6.55;1.48;;;24.70;45.50;;;;;;5052621;28;20029;-69
2023/05/04 12:23:58;;;;;;;5.28;1.80;;;24.70;44.30;;;;;;5054696;28;20487;-69
2023/05/04 12:26:24;;;;;;;3.25;1.70;;;24.70;43.70;;;;;;5055585;28;20053;-73
2023/05/04 12:28:50;;;;;;;4.68;2.03;;;24.70;43.80;;;;;;5054528;28;20032;-74
2023/05/04 12:31:16;;;;;;;2.40;1.60;;;24.70;42.70;;;;;;5055301;28;20387;-71
2023/05/04 13:39:40;;;;;;;7.50;2.20;;;24.50;48.60;;;;;;5151674;27;20107;-69
2023/05/04 13:42:07;;;;;;;4.13;2.15;;;24.50;49.50;;;;;;5151505;27;20509;-69
2023/05/04 13:44:33;;;;;;;6.60;1.92;;;24.50;50.00;;;;;;5151484;27;20019;-69
2023/05/04 13:47:02;;;;;;;3.67;1.80;;;24.70;49.80;;;;;;5151661;27;20479;-67
2023/05/04 13:49:28;;;;;;;7.53;2.20;;;24.70;49.20;;;;;;5151682;27;20019;-68
2023/05/04 13:51:57;;;;;;;7.45;2.20;;;24.70;47.80;;;;;;5133057;27;20471;-68
2023/05/04 13:54:23;;;;;;;3.45;2.00;;;24.70;48.60;;;;;;5151212;27;20534;-74
2023/05/04 13:56:49;;;;;;;5.53;2.72;;;24.60;49.50;;;;;;5132984;27;20027;-78
2023/05/04 13:59:15;;;;;;;2.85;1.95;;;24.60;48.40;;;;;;5151430;27;20060;-80
2023/05/04 14:01:41;;;;;;;3.50;2.30;;;24.60;49.00;;;;;;5151329;27;20090;-75
2023/05/04 14:04:07;;;;;;;6.00;2.05;;;24.50;48.30;;;;;;5151143;27;20026;-76
2023/05/04 14:06:33;;;;;;;3.42;2.00;;;24.50;48.60;;;;;;5151349;27;20022;-68
2023/05/04 14:08:59;;;;;;;4.90;1.95;;;24.40;48.30;;;;;;5151028;27;20027;-76
2023/05/04 14:11:25;;;;;;;3.22;2.15;;;24.40;48.30;;;;;;5151383;27;20076;-71
2023/05/04 14:13:53;;;;;;;6.03;1.90;;;24.30;49.10;;;;;;5150957;27;20033;-73
2023/05/04 14:16:19;;;;;;;20.75;2.67;;;24.30;49.30;;;;;;5151072;27;20040;-79
2023/05/04 14:18:45;;;;;;;3.45;2.08;;;24.30;48.60;;;;;;5151037;27;20117;-73
2023/05/04 14:21:11;;;;;;;6.43;2.10;;;24.30;50.60;;;;;;5150920;27;20027;-69
2023/05/04 14:23:37;;;;;;;3.03;2.17;;;24.30;48.70;;;;;;5151169;27;20023;-68
2023/05/04 14:26:03;;;;;;;3.70;2.50;;;24.30;47.30;;;;;;5133170;27;20076;-65
2023/05/04 14:28:29;;;;;;;8.82;4.75;;;24.20;48.10;;;;;;5151690;27;20479;-65
2023/05/04 14:30:57;;;;;;;3.80;2.03;;;24.20;48.90;;;;;;5151616;27;20027;-66
2023/05/04 14:33:23;;;;;;;5.97;2.13;;;24.20;48.00;;;;;;5151451;27;20037;-68
2023/05/04 14:36:40;;;;;;;4.55;2.30;;;24.10;48.40;;;;;;5151448;27;20366;-68
2023/05/04 14:42:25;;;;;;;19.83;2.20;;;24.10;49.40;;;;;;5140190;27;20107;-68
2023/05/04 14:45:17;;;;;;;;;;;24.10;48.80;;;;;;5119372;27;20034;-68
2023/05/04 14:48:01;;;;;;;7.70;2.47;;;24.10;50.20;;;;;;5086700;28;19911;-68
2023/05/04 14:51:42;;;;;;;5.90;2.50;;;24.10;49.40;;;;;;5076843;28;20021;-66
2023/05/04 14:57:23;;;;;;;7.00;2.20;;;24.10;48.40;;;;;;4955140;28;20041;-68
2023/05/04 15:04:09;;;;;;;12.20;2.70;;;24.10;49.40;;;;;;4946373;28;20032;-75
2023/05/04 15:06:35;;;;;;;7.07;2.15;;;24.10;49.60;;;;;;4916836;29;20405;-75
2023/05/04 15:09:02;;;;;;;9.75;2.20;;;24.10;50.00;;;;;;5019056;28;20427;-75